sensor_id;sensor_type;location;lat;lon;timestamp;P1;durP1;ratioP1;P2;durP2;ratioP2
13032;SDS011;6583;42.632;23.298;2023-01-15T00:00:23;31.37;;;16.93;;
13032;SDS011;6583;42.632;23.298;2023-01-15T00:02:50;30.80;;;17.23;;
13032;SDS011;6583;42.632;23.298;2023-01-15T00:05:16;28.37;;;16.63;;
13032;SDS011;6583;42.632;23.298;2023-01-15T00:07:43;30.60;;;16.80;;
13032;SDS011;6583;42.632;23.298;2023-01-15T00:10:11;29.33;;;17.13;;
13032;SDS011;6583;42.632;23.298;2023-01-15T00:12:38;27.20;;;16.80;;
13032;SDS011;6583;42.632;23.298;2023-01-15T00:15:05;27.87;;;16.60;;
13032;SDS011;6583;42.632;23.298;2023-01-15T00:17:32;28.13;;;17.03;;
13032;SDS011;6583;42.632;23.298;2023-01-15T00:19:59;31.47;;;17.00;;
13032;SDS011;6583;42.632;23.298;2023-01-15T00:22:25;29.50;;;17.27;;
13032;SDS011;6583;42.632;23.298;2023-01-15T00:24:54;29.73;;;16.60;;
13032;SDS011;6583;42.632;23.298;2023-01-15T00:27:39;30.90;;;17.60;;
13032;SDS011;6583;42.632;23.298;2023-01-15T00:30:08;30.40;;;17.27;;
13032;SDS011;6583;42.632;23.298;2023-01-15T00:32:37;30.67;;;17.03;;
13032;SDS011;6583;42.632;23.298;2023-01-15T00:35:04;29.50;;;16.87;;
13032;SDS011;6583;42.632;23.298;2023-01-15T00:37:32;34.50;;;17.50;;
13032;SDS011;6583;42.632;23.298;2023-01-15T00:39:59;30.20;;;17.60;;
13032;SDS011;6583;42.632;23.298;2023-01-15T00:42:25;28.87;;;17.17;;
13032;SDS011;6583;42.632;23.298;2023-01-15T00:44:53;29.60;;;17.23;;
13032;SDS011;6583;42.632;23.298;2023-01-15T00:47:20;26.63;;;16.87;;
13032;SDS011;6583;42.632;23.298;2023-01-15T00:49:47;30.07;;;17.27;;
13032;SDS011;6583;42.632;23.298;2023-01-15T00:52:14;28.60;;;16.47;;
13032;SDS011;6583;42.632;23.298;2023-01-15T00:54:41;26.07;;;15.30;;
13032;SDS011;6583;42.632;23.298;2023-01-15T00:57:08;29.47;;;16.80;;
13032;SDS011;6583;42.632;23.298;2023-01-15T00:59:35;26.63;;;15.77;;
13032;SDS011;6583;42.632;23.298;2023-01-15T01:02:03;27.20;;;16.20;;
13032;SDS011;6583;42.632;23.298;2023-01-15T01:04:30;28.27;;;16.50;;
13032;SDS011;6583;42.632;23.298;2023-01-15T01:06:57;29.40;;;16.23;;
13032;SDS011;6583;42.632;23.298;2023-01-15T01:09:23;29.40;;;16.27;;
13032;SDS011;6583;42.632;23.298;2023-01-15T01:11:50;28.23;;;16.33;;
13032;SDS011;6583;42.632;23.298;2023-01-15T01:14:16;27.97;;;16.17;;
13032;SDS011;6583;42.632;23.298;2023-01-15T01:16:43;29.87;;;16.83;;
13032;SDS011;6583;42.632;23.298;2023-01-15T01:19:12;28.90;;;16.43;;
13032;SDS011;6583;42.632;23.298;2023-01-15T01:21:41;28.50;;;17.33;;
13032;SDS011;6583;42.632;23.298;2023-01-15T01:24:09;31.57;;;16.67;;
13032;SDS011;6583;42.632;23.298;2023-01-15T01:26:36;28.97;;;16.27;;
13032;SDS011;6583;42.632;23.298;2023-01-15T01:29:03;28.00;;;17.60;;
13032;SDS011;6583;42.632;23.298;2023-01-15T01:31:30;30.60;;;17.23;;
13032;SDS011;6583;42.632;23.298;2023-01-15T01:33:57;25.73;;;16.20;;
13032;SDS011;6583;42.632;23.298;2023-01-15T01:36:26;30.07;;;16.67;;
13032;SDS011;6583;42.632;23.298;2023-01-15T01:38:54;28.20;;;16.10;;
13032;SDS011;6583;42.632;23.298;2023-01-15T01:41:21;26.43;;;15.20;;
13032;SDS011;6583;42.632;23.298;2023-01-15T01:43:52;24.97;;;14.67;;
13032;SDS011;6583;42.632;23.298;2023-01-15T01:46:21;24.13;;;13.90;;
13032;SDS011;6583;42.632;23.298;2023-01-15T01:48:49;27.23;;;15.10;;
13032;SDS011;6583;42.632;23.298;2023-01-15T01:51:18;26.53;;;14.60;;
13032;SDS011;6583;42.632;23.298;2023-01-15T01:53:50;25.10;;;13.97;;
13032;SDS011;6583;42.632;23.298;2023-01-15T01:56:17;24.43;;;14.17;;
13032;SDS011;6583;42.632;23.298;2023-01-15T01:58:44;20.83;;;12.13;;
13032;SDS011;6583;42.632;23.298;2023-01-15T02:01:15;20.90;;;11.97;;
13032;SDS011;6583;42.632;23.298;2023-01-15T02:03:42;25.70;;;13.20;;
13032;SDS011;6583;42.632;23.298;2023-01-15T02:06:10;21.53;;;12.43;;
13032;SDS011;6583;42.632;23.298;2023-01-15T02:08:39;19.93;;;12.07;;
13032;SDS011;6583;42.632;23.298;2023-01-15T02:11:10;23.23;;;13.00;;
13032;SDS011;6583;42.632;23.298;2023-01-15T02:13:41;17.70;;;10.00;;
13032;SDS011;6583;42.632;23.298;2023-01-15T02:16:15;19.63;;;11.90;;
13032;SDS011;6583;42.632;23.298;2023-01-15T02:18:49;16.20;;;10.33;;
13032;SDS011;6583;42.632;23.298;2023-01-15T02:21:22;21.13;;;12.27;;
13032;SDS011;6583;42.632;23.298;2023-01-15T02:24:06;18.53;;;11.37;;
13032;SDS011;6583;42.632;23.298;2023-01-15T02:26:46;17.47;;;10.63;;
13032;SDS011;6583;42.632;23.298;2023-01-15T02:29:24;17.30;;;9.93;;
13032;SDS011;6583;42.632;23.298;2023-01-15T02:31:55;16.13;;;10.03;;
13032;SDS011;6583;42.632;23.298;2023-01-15T02:34:25;16.73;;;10.37;;
13032;SDS011;6583;42.632;23.298;2023-01-15T02:36:59;18.27;;;11.10;;
13032;SDS011;6583;42.632;23.298;2023-01-15T02:39:28;17.53;;;10.43;;
13032;SDS011;6583;42.632;23.298;2023-01-15T02:41:59;19.17;;;11.17;;
13032;SDS011;6583;42.632;23.298;2023-01-15T02:44:29;16.30;;;10.63;;
13032;SDS011;6583;42.632;23.298;2023-01-15T02:47:01;18.93;;;11.60;;
13032;SDS011;6583;42.632;23.298;2023-01-15T02:49:30;19.97;;;11.53;;
13032;SDS011;6583;42.632;23.298;2023-01-15T02:51:58;17.30;;;10.93;;
13032;SDS011;6583;42.632;23.298;2023-01-15T02:54:28;19.03;;;11.33;;
13032;SDS011;6583;42.632;23.298;2023-01-15T02:57:01;17.33;;;11.10;;
13032;SDS011;6583;42.632;23.298;2023-01-15T02:59:32;18.80;;;10.93;;
13032;SDS011;6583;42.632;23.298;2023-01-15T03:02:02;17.37;;;10.87;;
13032;SDS011;6583;42.632;23.298;2023-01-15T03:04:34;18.17;;;10.33;;
13032;SDS011;6583;42.632;23.298;2023-01-15T03:07:04;17.97;;;11.07;;
13032;SDS011;6583;42.632;23.298;2023-01-15T03:09:35;16.70;;;10.97;;
13032;SDS011;6583;42.632;23.298;2023-01-15T03:12:05;15.83;;;10.23;;
13032;SDS011;6583;42.632;23.298;2023-01-15T03:14:41;16.90;;;11.03;;
13032;SDS011;6583;42.632;23.298;2023-01-15T03:17:15;24.30;;;14.70;;
13032;SDS011;6583;42.632;23.298;2023-01-15T03:19:47;27.57;;;16.10;;
13032;SDS011;6583;42.632;23.298;2023-01-15T03:22:18;27.50;;;16.63;;
13032;SDS011;6583;42.632;23.298;2023-01-15T03:24:49;27.13;;;15.93;;
13032;SDS011;6583;42.632;23.298;2023-01-15T03:27:21;28.87;;;16.07;;
13032;SDS011;6583;42.632;23.298;2023-01-15T03:29:49;27.10;;;15.97;;
13032;SDS011;6583;42.632;23.298;2023-01-15T03:32:18;27.90;;;16.63;;
13032;SDS011;6583;42.632;23.298;2023-01-15T03:34:48;27.47;;;16.57;;
13032;SDS011;6583;42.632;23.298;2023-01-15T03:37:16;31.37;;;17.50;;
13032;SDS011;6583;42.632;23.298;2023-01-15T03:39:44;22.63;;;14.10;;
13032;SDS011;6583;42.632;23.298;2023-01-15T03:42:15;27.80;;;17.40;;
13032;SDS011;6583;42.632;23.298;2023-01-15T03:44:51;28.40;;;16.73;;
13032;SDS011;6583;42.632;23.298;2023-01-15T03:47:29;29.20;;;16.33;;
13032;SDS011;6583;42.632;23.298;2023-01-15T03:50:04;24.43;;;14.33;;
13032;SDS011;6583;42.632;23.298;2023-01-15T03:52:40;27.63;;;16.20;;
13032;SDS011;6583;42.632;23.298;2023-01-15T03:55:11;25.27;;;15.57;;
13032;SDS011;6583;42.632;23.298;2023-01-15T03:57:42;24.97;;;15.43;;
13032;SDS011;6583;42.632;23.298;2023-01-15T04:00:16;23.37;;;15.37;;
13032;SDS011;6583;42.632;23.298;2023-01-15T04:02:46;28.23;;;15.47;;
13032;SDS011;6583;42.632;23.298;2023-01-15T04:05:14;25.20;;;15.23;;
13032;SDS011;6583;42.632;23.298;2023-01-15T04:07:41;25.47;;;15.13;;
13032;SDS011;6583;42.632;23.298;2023-01-15T04:10:10;22.97;;;14.33;;
13032;SDS011;6583;42.632;23.298;2023-01-15T04:12:36;27.37;;;15.73;;
13032;SDS011;6583;42.632;23.298;2023-01-15T04:15:03;23.23;;;14.60;;
13032;SDS011;6583;42.632;23.298;2023-01-15T04:17:32;24.63;;;13.90;;
13032;SDS011;6583;42.632;23.298;2023-01-15T04:19:59;21.97;;;13.57;;
13032;SDS011;6583;42.632;23.298;2023-01-15T04:22:25;20.43;;;13.30;;
13032;SDS011;6583;42.632;23.298;2023-01-15T04:24:52;20.47;;;13.27;;
13032;SDS011;6583;42.632;23.298;2023-01-15T04:27:19;23.27;;;14.07;;
13032;SDS011;6583;42.632;23.298;2023-01-15T04:29:46;20.83;;;12.90;;
13032;SDS011;6583;42.632;23.298;2023-01-15T04:32:13;22.07;;;12.80;;
13032;SDS011;6583;42.632;23.298;2023-01-15T04:34:41;23.93;;;13.47;;
13032;SDS011;6583;42.632;23.298;2023-01-15T04:37:07;22.23;;;13.20;;
13032;SDS011;6583;42.632;23.298;2023-01-15T04:39:34;22.10;;;13.20;;
13032;SDS011;6583;42.632;23.298;2023-01-15T04:42:01;21.07;;;13.17;;
13032;SDS011;6583;42.632;23.298;2023-01-15T04:44:45;20.60;;;13.03;;
13032;SDS011;6583;42.632;23.298;2023-01-15T04:47:11;19.70;;;12.20;;
13032;SDS011;6583;42.632;23.298;2023-01-15T04:49:38;20.30;;;12.33;;
13032;SDS011;6583;42.632;23.298;2023-01-15T04:52:06;20.70;;;12.13;;
13032;SDS011;6583;42.632;23.298;2023-01-15T04:54:33;19.90;;;11.93;;
13032;SDS011;6583;42.632;23.298;2023-01-15T04:57:00;21.70;;;12.80;;
13032;SDS011;6583;42.632;23.298;2023-01-15T04:59:26;19.63;;;12.37;;
13032;SDS011;6583;42.632;23.298;2023-01-15T05:01:53;20.10;;;12.07;;
13032;SDS011;6583;42.632;23.298;2023-01-15T05:04:20;19.77;;;12.07;;
13032;SDS011;6583;42.632;23.298;2023-01-15T05:06:47;22.17;;;13.27;;
13032;SDS011;6583;42.632;23.298;2023-01-15T05:09:15;20.27;;;12.53;;
13032;SDS011;6583;42.632;23.298;2023-01-15T05:11:42;18.80;;;11.77;;
13032;SDS011;6583;42.632;23.298;2023-01-15T05:14:08;20.27;;;12.67;;
13032;SDS011;6583;42.632;23.298;2023-01-15T05:16:35;19.17;;;11.30;;
13032;SDS011;6583;42.632;23.298;2023-01-15T05:19:03;17.90;;;10.70;;
13032;SDS011;6583;42.632;23.298;2023-01-15T05:21:31;17.37;;;10.07;;
13032;SDS011;6583;42.632;23.298;2023-01-15T05:24:00;17.93;;;9.63;;
13032;SDS011;6583;42.632;23.298;2023-01-15T05:26:30;13.87;;;8.97;;
13032;SDS011;6583;42.632;23.298;2023-01-15T05:28:58;16.40;;;10.30;;
13032;SDS011;6583;42.632;23.298;2023-01-15T05:31:26;14.60;;;9.07;;
13032;SDS011;6583;42.632;23.298;2023-01-15T05:33:54;12.60;;;7.97;;
13032;SDS011;6583;42.632;23.298;2023-01-15T05:36:21;11.93;;;8.00;;
13032;SDS011;6583;42.632;23.298;2023-01-15T05:38:49;11.43;;;7.23;;
13032;SDS011;6583;42.632;23.298;2023-01-15T05:41:17;9.77;;;6.73;;
13032;SDS011;6583;42.632;23.298;2023-01-15T05:44:04;8.70;;;5.77;;
13032;SDS011;6583;42.632;23.298;2023-01-15T05:46:33;7.53;;;5.63;;
13032;SDS011;6583;42.632;23.298;2023-01-15T05:49:02;9.10;;;5.80;;
13032;SDS011;6583;42.632;23.298;2023-01-15T05:51:30;10.30;;;6.17;;
13032;SDS011;6583;42.632;23.298;2023-01-15T05:53:56;9.00;;;6.20;;
13032;SDS011;6583;42.632;23.298;2023-01-15T05:56:23;10.40;;;6.93;;
13032;SDS011;6583;42.632;23.298;2023-01-15T05:58:51;15.17;;;7.50;;
13032;SDS011;6583;42.632;23.298;2023-01-15T06:01:19;13.23;;;6.97;;
13032;SDS011;6583;42.632;23.298;2023-01-15T06:03:46;11.80;;;8.00;;
13032;SDS011;6583;42.632;23.298;2023-01-15T06:06:13;11.93;;;7.77;;
13032;SDS011;6583;42.632;23.298;2023-01-15T06:08:41;13.50;;;8.30;;
13032;SDS011;6583;42.632;23.298;2023-01-15T06:11:09;13.13;;;7.80;;
13032;SDS011;6583;42.632;23.298;2023-01-15T06:13:36;13.60;;;8.67;;
13032;SDS011;6583;42.632;23.298;2023-01-15T06:16:04;15.50;;;8.53;;
13032;SDS011;6583;42.632;23.298;2023-01-15T06:18:33;14.73;;;8.13;;
13032;SDS011;6583;42.632;23.298;2023-01-15T06:21:01;12.53;;;7.50;;
13032;SDS011;6583;42.632;23.298;2023-01-15T06:23:28;14.90;;;8.30;;
13032;SDS011;6583;42.632;23.298;2023-01-15T06:25:58;13.73;;;7.97;;
13032;SDS011;6583;42.632;23.298;2023-01-15T06:28:25;11.67;;;7.33;;
13032;SDS011;6583;42.632;23.298;2023-01-15T06:30:51;11.63;;;6.67;;
13032;SDS011;6583;42.632;23.298;2023-01-15T06:33:18;17.43;;;7.63;;
13032;SDS011;6583;42.632;23.298;2023-01-15T06:35:47;21.53;;;8.77;;
13032;SDS011;6583;42.632;23.298;2023-01-15T06:38:14;11.30;;;7.30;;
13032;SDS011;6583;42.632;23.298;2023-01-15T06:40:40;12.17;;;7.20;;
13032;SDS011;6583;42.632;23.298;2023-01-15T06:43:07;10.67;;;6.67;;
13032;SDS011;6583;42.632;23.298;2023-01-15T06:45:52;14.30;;;7.40;;
13032;SDS011;6583;42.632;23.298;2023-01-15T06:48:45;11.93;;;7.20;;
13032;SDS011;6583;42.632;23.298;2023-01-15T06:51:13;13.90;;;7.90;;
13032;SDS011;6583;42.632;23.298;2023-01-15T06:53:43;14.50;;;8.50;;
13032;SDS011;6583;42.632;23.298;2023-01-15T06:56:11;14.97;;;9.47;;
13032;SDS011;6583;42.632;23.298;2023-01-15T06:58:38;14.43;;;8.80;;
13032;SDS011;6583;42.632;23.298;2023-01-15T07:01:08;14.43;;;7.97;;
13032;SDS011;6583;42.632;23.298;2023-01-15T07:03:35;16.40;;;8.70;;
13032;SDS011;6583;42.632;23.298;2023-01-15T07:06:06;21.30;;;11.63;;
13032;SDS011;6583;42.632;23.298;2023-01-15T07:08:35;18.33;;;9.90;;
13032;SDS011;6583;42.632;23.298;2023-01-15T07:11:02;14.20;;;8.63;;
13032;SDS011;6583;42.632;23.298;2023-01-15T07:13:29;12.70;;;7.93;;
13032;SDS011;6583;42.632;23.298;2023-01-15T07:15:57;14.90;;;8.63;;
13032;SDS011;6583;42.632;23.298;2023-01-15T07:18:25;14.37;;;8.37;;
13032;SDS011;6583;42.632;23.298;2023-01-15T07:20:53;13.70;;;8.30;;
13032;SDS011;6583;42.632;23.298;2023-01-15T07:23:20;10.90;;;7.20;;
13032;SDS011;6583;42.632;23.298;2023-01-15T07:25:49;10.77;;;7.33;;
13032;SDS011;6583;42.632;23.298;2023-01-15T07:28:17;10.60;;;6.97;;
13032;SDS011;6583;42.632;23.298;2023-01-15T07:30:43;11.40;;;7.03;;
13032;SDS011;6583;42.632;23.298;2023-01-15T07:33:10;9.80;;;6.60;;
13032;SDS011;6583;42.632;23.298;2023-01-15T07:35:37;10.83;;;6.87;;
13032;SDS011;6583;42.632;23.298;2023-01-15T07:38:04;10.50;;;7.20;;
13032;SDS011;6583;42.632;23.298;2023-01-15T07:40:30;11.57;;;7.57;;
13032;SDS011;6583;42.632;23.298;2023-01-15T07:42:58;15.73;;;9.17;;
13032;SDS011;6583;42.632;23.298;2023-01-15T07:45:42;13.63;;;8.47;;
13032;SDS011;6583;42.632;23.298;2023-01-15T07:48:27;15.87;;;9.40;;
13032;SDS011;6583;42.632;23.298;2023-01-15T07:51:11;16.67;;;9.70;;
13032;SDS011;6583;42.632;23.298;2023-01-15T07:53:37;17.37;;;9.93;;
13032;SDS011;6583;42.632;23.298;2023-01-15T07:56:04;15.60;;;9.87;;
13032;SDS011;6583;42.632;23.298;2023-01-15T07:58:32;15.83;;;10.37;;
13032;SDS011;6583;42.632;23.298;2023-01-15T08:00:59;18.77;;;11.70;;
13032;SDS011;6583;42.632;23.298;2023-01-15T08:03:26;17.80;;;11.27;;
13032;SDS011;6583;42.632;23.298;2023-01-15T08:05:52;18.80;;;11.67;;
13032;SDS011;6583;42.632;23.298;2023-01-15T08:08:19;19.77;;;13.17;;
13032;SDS011;6583;42.632;23.298;2023-01-15T08:10:45;24.17;;;13.13;;
13032;SDS011;6583;42.632;23.298;2023-01-15T08:13:26;20.83;;;12.80;;
13032;SDS011;6583;42.632;23.298;2023-01-15T08:16:11;17.80;;;11.50;;
13032;SDS011;6583;42.632;23.298;2023-01-15T08:18:38;18.00;;;11.73;;
13032;SDS011;6583;42.632;23.298;2023-01-15T08:21:04;18.57;;;11.70;;
13032;SDS011;6583;42.632;23.298;2023-01-15T08:23:31;20.07;;;12.50;;
13032;SDS011;6583;42.632;23.298;2023-01-15T08:25:58;21.53;;;13.17;;
13032;SDS011;6583;42.632;23.298;2023-01-15T08:28:25;21.07;;;12.60;;
13032;SDS011;6583;42.632;23.298;2023-01-15T08:30:52;19.80;;;12.67;;
13032;SDS011;6583;42.632;23.298;2023-01-15T08:33:20;20.80;;;13.70;;
13032;SDS011;6583;42.632;23.298;2023-01-15T08:35:46;20.43;;;13.97;;
13032;SDS011;6583;42.632;23.298;2023-01-15T08:38:13;22.17;;;13.60;;
13032;SDS011;6583;42.632;23.298;2023-01-15T08:40:40;17.90;;;12.70;;
13032;SDS011;6583;42.632;23.298;2023-01-15T08:43:20;18.37;;;12.27;;
13032;SDS011;6583;42.632;23.298;2023-01-15T08:45:47;19.60;;;12.03;;
13032;SDS011;6583;42.632;23.298;2023-01-15T08:48:14;19.83;;;12.43;;
13032;SDS011;6583;42.632;23.298;2023-01-15T08:50:42;22.37;;;13.20;;
13032;SDS011;6583;42.632;23.298;2023-01-15T08:53:08;20.23;;;12.80;;
13032;SDS011;6583;42.632;23.298;2023-01-15T08:55:35;24.80;;;13.87;;
13032;SDS011;6583;42.632;23.298;2023-01-15T08:58:02;22.60;;;13.37;;
13032;SDS011;6583;42.632;23.298;2023-01-15T09:00:29;21.83;;;13.93;;
13032;SDS011;6583;42.632;23.298;2023-01-15T09:02:56;23.50;;;14.27;;
13032;SDS011;6583;42.632;23.298;2023-01-15T09:05:22;22.90;;;14.77;;
13032;SDS011;6583;42.632;23.298;2023-01-15T09:07:50;27.77;;;15.60;;
13032;SDS011;6583;42.632;23.298;2023-01-15T09:10:17;29.50;;;16.30;;
13032;SDS011;6583;42.632;23.298;2023-01-15T09:12:44;26.33;;;16.60;;
13032;SDS011;6583;42.632;23.298;2023-01-15T09:15:11;27.30;;;17.80;;
13032;SDS011;6583;42.632;23.298;2023-01-15T09:17:37;26.47;;;17.03;;
13032;SDS011;6583;42.632;23.298;2023-01-15T09:20:07;26.53;;;16.00;;
13032;SDS011;6583;42.632;23.298;2023-01-15T09:22:35;26.43;;;16.63;;
13032;SDS011;6583;42.632;23.298;2023-01-15T09:25:03;25.27;;;16.80;;
13032;SDS011;6583;42.632;23.298;2023-01-15T09:27:31;27.33;;;16.63;;
13032;SDS011;6583;42.632;23.298;2023-01-15T09:29:58;23.17;;;14.83;;
13032;SDS011;6583;42.632;23.298;2023-01-15T09:32:24;24.20;;;15.77;;
13032;SDS011;6583;42.632;23.298;2023-01-15T09:34:51;25.67;;;15.33;;
13032;SDS011;6583;42.632;23.298;2023-01-15T09:37:18;24.23;;;15.23;;
13032;SDS011;6583;42.632;23.298;2023-01-15T09:39:45;24.37;;;15.53;;
13032;SDS011;6583;42.632;23.298;2023-01-15T09:42:17;27.17;;;16.87;;
13032;SDS011;6583;42.632;23.298;2023-01-15T09:47:43;26.13;;;15.70;;
13032;SDS011;6583;42.632;23.298;2023-01-15T09:50:19;27.37;;;15.87;;
13032;SDS011;6583;42.632;23.298;2023-01-15T09:53:03;25.10;;;15.10;;
13032;SDS011;6583;42.632;23.298;2023-01-15T09:55:44;22.43;;;13.80;;
13032;SDS011;6583;42.632;23.298;2023-01-15T09:58:14;23.47;;;13.97;;
13032;SDS011;6583;42.632;23.298;2023-01-15T10:00:44;23.63;;;14.50;;
13032;SDS011;6583;42.632;23.298;2023-01-15T10:03:16;26.73;;;14.73;;
13032;SDS011;6583;42.632;23.298;2023-01-15T10:05:52;22.93;;;14.50;;
13032;SDS011;6583;42.632;23.298;2023-01-15T10:08:28;20.90;;;13.23;;
13032;SDS011;6583;42.632;23.298;2023-01-15T10:10:59;25.33;;;14.40;;
13032;SDS011;6583;42.632;23.298;2023-01-15T10:13:34;22.83;;;14.23;;
13032;SDS011;6583;42.632;23.298;2023-01-15T10:16:06;25.53;;;15.43;;
13032;SDS011;6583;42.632;23.298;2023-01-15T10:18:34;24.47;;;16.33;;
13032;SDS011;6583;42.632;23.298;2023-01-15T10:21:05;28.73;;;16.70;;
13032;SDS011;6583;42.632;23.298;2023-01-15T10:23:41;26.63;;;17.13;;
13032;SDS011;6583;42.632;23.298;2023-01-15T10:26:21;29.50;;;17.00;;
13032;SDS011;6583;42.632;23.298;2023-01-15T10:29:00;27.27;;;17.50;;
13032;SDS011;6583;42.632;23.298;2023-01-15T10:31:32;29.50;;;18.10;;
13032;SDS011;6583;42.632;23.298;2023-01-15T10:34:27;33.90;;;20.27;;
13032;SDS011;6583;42.632;23.298;2023-01-15T10:37:11;29.20;;;18.80;;
13032;SDS011;6583;42.632;23.298;2023-01-15T10:39:44;26.43;;;16.13;;
13032;SDS011;6583;42.632;23.298;2023-01-15T10:42:19;26.80;;;17.27;;
13032;SDS011;6583;42.632;23.298;2023-01-15T10:44:58;27.83;;;16.53;;
13032;SDS011;6583;42.632;23.298;2023-01-15T10:47:31;32.77;;;17.33;;
13032;SDS011;6583;42.632;23.298;2023-01-15T10:50:02;28.37;;;17.73;;
13032;SDS011;6583;42.632;23.298;2023-01-15T10:52:38;26.13;;;16.67;;
13032;SDS011;6583;42.632;23.298;2023-01-15T10:55:15;24.40;;;15.60;;
13032;SDS011;6583;42.632;23.298;2023-01-15T10:57:47;27.87;;;16.17;;
13032;SDS011;6583;42.632;23.298;2023-01-15T11:00:20;33.10;;;18.87;;
13032;SDS011;6583;42.632;23.298;2023-01-15T11:02:49;33.73;;;17.80;;
13032;SDS011;6583;42.632;23.298;2023-01-15T11:05:25;28.90;;;18.17;;
13032;SDS011;6583;42.632;23.298;2023-01-15T11:07:52;27.33;;;16.50;;
13032;SDS011;6583;42.632;23.298;2023-01-15T11:10:19;31.70;;;19.10;;
13032;SDS011;6583;42.632;23.298;2023-01-15T11:12:49;31.37;;;17.30;;
13032;SDS011;6583;42.632;23.298;2023-01-15T11:15:37;31.00;;;18.93;;
13032;SDS011;6583;42.632;23.298;2023-01-15T11:18:22;32.03;;;19.83;;
13032;SDS011;6583;42.632;23.298;2023-01-15T11:21:10;26.73;;;17.13;;
13032;SDS011;6583;42.632;23.298;2023-01-15T11:23:39;30.93;;;18.63;;
13032;SDS011;6583;42.632;23.298;2023-01-15T11:26:06;29.20;;;19.80;;
13032;SDS011;6583;42.632;23.298;2023-01-15T11:28:35;26.07;;;17.40;;
13032;SDS011;6583;42.632;23.298;2023-01-15T11:31:05;29.10;;;17.90;;
13032;SDS011;6583;42.632;23.298;2023-01-15T11:33:33;26.43;;;15.70;;
13032;SDS011;6583;42.632;23.298;2023-01-15T11:36:01;28.10;;;18.30;;
13032;SDS011;6583;42.632;23.298;2023-01-15T11:38:35;30.97;;;19.27;;
13032;SDS011;6583;42.632;23.298;2023-01-15T11:41:15;29.27;;;16.80;;
13032;SDS011;6583;42.632;23.298;2023-01-15T11:43:52;29.73;;;16.30;;
13032;SDS011;6583;42.632;23.298;2023-01-15T11:46:38;24.00;;;14.93;;
13032;SDS011;6583;42.632;23.298;2023-01-15T11:49:22;31.03;;;19.90;;
13032;SDS011;6583;42.632;23.298;2023-01-15T11:52:07;26.33;;;15.87;;
13032;SDS011;6583;42.632;23.298;2023-01-15T11:54:36;26.77;;;16.70;;
13032;SDS011;6583;42.632;23.298;2023-01-15T11:57:04;22.83;;;14.97;;
13032;SDS011;6583;42.632;23.298;2023-01-15T11:59:32;29.87;;;19.83;;
13032;SDS011;6583;42.632;23.298;2023-01-15T12:02:00;27.00;;;16.73;;
13032;SDS011;6583;42.632;23.298;2023-01-15T12:04:31;26.83;;;19.40;;
13032;SDS011;6583;42.632;23.298;2023-01-15T12:07:01;38.03;;;18.30;;
13032;SDS011;6583;42.632;23.298;2023-01-15T12:09:35;26.10;;;16.63;;
13032;SDS011;6583;42.632;23.298;2023-01-15T12:12:14;23.87;;;15.40;;
13032;SDS011;6583;42.632;23.298;2023-01-15T12:14:55;27.13;;;15.97;;
13032;SDS011;6583;42.632;23.298;2023-01-15T12:17:40;21.70;;;14.00;;
13032;SDS011;6583;42.632;23.298;2023-01-15T12:20:19;24.47;;;15.00;;
13032;SDS011;6583;42.632;23.298;2023-01-15T12:22:56;25.03;;;15.30;;
13032;SDS011;6583;42.632;23.298;2023-01-15T12:25:36;26.57;;;16.33;;
13032;SDS011;6583;42.632;23.298;2023-01-15T12:28:13;27.27;;;16.93;;
13032;SDS011;6583;42.632;23.298;2023-01-15T12:30:45;25.70;;;16.77;;
13032;SDS011;6583;42.632;23.298;2023-01-15T12:33:24;27.70;;;16.00;;
13032;SDS011;6583;42.632;23.298;2023-01-15T12:36:01;20.40;;;14.20;;
13032;SDS011;6583;42.632;23.298;2023-01-15T12:38:38;23.00;;;14.60;;
13032;SDS011;6583;42.632;23.298;2023-01-15T12:41:11;29.20;;;16.23;;
13032;SDS011;6583;42.632;23.298;2023-01-15T12:43:41;25.73;;;16.40;;
13032;SDS011;6583;42.632;23.298;2023-01-15T12:46:29;25.50;;;15.13;;
13032;SDS011;6583;42.632;23.298;2023-01-15T12:49:03;20.03;;;13.03;;
13032;SDS011;6583;42.632;23.298;2023-01-15T12:51:37;24.30;;;15.30;;
13032;SDS011;6583;42.632;23.298;2023-01-15T12:54:11;25.53;;;15.00;;
13032;SDS011;6583;42.632;23.298;2023-01-15T12:56:44;21.57;;;14.13;;
13032;SDS011;6583;42.632;23.298;2023-01-15T12:59:21;23.00;;;13.37;;
13032;SDS011;6583;42.632;23.298;2023-01-15T13:01:55;19.80;;;13.53;;
13032;SDS011;6583;42.632;23.298;2023-01-15T13:04:36;20.97;;;14.73;;
13032;SDS011;6583;42.632;23.298;2023-01-15T13:07:10;20.90;;;14.60;;
13032;SDS011;6583;42.632;23.298;2023-01-15T13:09:44;22.73;;;14.73;;
13032;SDS011;6583;42.632;23.298;2023-01-15T13:12:15;23.33;;;15.47;;
13032;SDS011;6583;42.632;23.298;2023-01-15T13:14:42;21.47;;;14.60;;
13032;SDS011;6583;42.632;23.298;2023-01-15T13:17:10;20.80;;;13.90;;
13032;SDS011;6583;42.632;23.298;2023-01-15T13:19:47;22.03;;;14.87;;
13032;SDS011;6583;42.632;23.298;2023-01-15T13:22:39;25.93;;;15.83;;
13032;SDS011;6583;42.632;23.298;2023-01-15T13:25:27;21.70;;;12.87;;
13032;SDS011;6583;42.632;23.298;2023-01-15T13:28:07;20.17;;;12.37;;
13032;SDS011;6583;42.632;23.298;2023-01-15T13:30:48;19.00;;;12.90;;
13032;SDS011;6583;42.632;23.298;2023-01-15T13:33:25;20.03;;;13.47;;
13032;SDS011;6583;42.632;23.298;2023-01-15T13:36:00;18.80;;;12.83;;
13032;SDS011;6583;42.632;23.298;2023-01-15T13:38:32;36.57;;;15.73;;
13032;SDS011;6583;42.632;23.298;2023-01-15T13:41:05;22.77;;;15.30;;
13032;SDS011;6583;42.632;23.298;2023-01-15T13:43:34;29.60;;;16.83;;
13032;SDS011;6583;42.632;23.298;2023-01-15T13:46:04;19.57;;;12.97;;
13032;SDS011;6583;42.632;23.298;2023-01-15T13:48:36;17.00;;;12.00;;
13032;SDS011;6583;42.632;23.298;2023-01-15T13:51:20;19.83;;;12.83;;
13032;SDS011;6583;42.632;23.298;2023-01-15T13:53:51;16.87;;;11.70;;
13032;SDS011;6583;42.632;23.298;2023-01-15T13:56:24;17.63;;;12.37;;
13032;SDS011;6583;42.632;23.298;2023-01-15T13:58:53;16.63;;;11.27;;
13032;SDS011;6583;42.632;23.298;2023-01-15T14:01:22;16.83;;;11.23;;
13032;SDS011;6583;42.632;23.298;2023-01-15T14:03:54;17.03;;;11.13;;
13032;SDS011;6583;42.632;23.298;2023-01-15T14:06:35;16.17;;;11.40;;
13032;SDS011;6583;42.632;23.298;2023-01-15T14:09:03;17.23;;;11.40;;
13032;SDS011;6583;42.632;23.298;2023-01-15T14:11:33;19.33;;;11.60;;
13032;SDS011;6583;42.632;23.298;2023-01-15T14:14:09;22.73;;;11.87;;
13032;SDS011;6583;42.632;23.298;2023-01-15T14:16:49;17.63;;;11.53;;
13032;SDS011;6583;42.632;23.298;2023-01-15T14:19:27;16.33;;;10.87;;
13032;SDS011;6583;42.632;23.298;2023-01-15T14:22:10;16.07;;;11.43;;
13032;SDS011;6583;42.632;23.298;2023-01-15T14:24:54;16.37;;;10.80;;
13032;SDS011;6583;42.632;23.298;2023-01-15T14:27:38;15.37;;;10.47;;
13032;SDS011;6583;42.632;23.298;2023-01-15T14:30:21;15.90;;;9.97;;
13032;SDS011;6583;42.632;23.298;2023-01-15T14:32:57;16.90;;;11.37;;
13032;SDS011;6583;42.632;23.298;2023-01-15T14:35:34;17.43;;;10.77;;
13032;SDS011;6583;42.632;23.298;2023-01-15T14:38:04;15.13;;;10.23;;
13032;SDS011;6583;42.632;23.298;2023-01-15T14:40:36;18.30;;;10.27;;
13032;SDS011;6583;42.632;23.298;2023-01-15T14:43:14;16.67;;;10.47;;
13032;SDS011;6583;42.632;23.298;2023-01-15T14:45:44;14.33;;;9.87;;
13032;SDS011;6583;42.632;23.298;2023-01-15T14:48:17;14.17;;;9.77;;